createdAt,value
2022-10-06T00:00:35.741Z,14.63
2022-10-06T00:01:37.597Z,16.85
2022-10-06T00:02:39.617Z,14.25
2022-10-06T00:03:44.420Z,12.57
2022-10-06T00:04:47.228Z,14.95
2022-10-06T00:05:50.515Z,13.32
2022-10-06T00:06:52.312Z,16.23
2022-10-06T00:07:55.461Z,18.77
2022-10-06T00:08:57.259Z,19.25
2022-10-06T00:09:58.968Z,20.23
2022-10-06T00:11:00.943Z,15.90
2022-10-06T00:12:02.909Z,17.33
2022-10-06T00:13:06.947Z,16.35
2022-10-06T00:14:08.983Z,14.43
2022-10-06T00:15:12.324Z,16.85
2022-10-06T00:16:18.612Z,15.02
2022-10-06T00:17:20.516Z,17.85
2022-10-06T00:18:22.385Z,13.25
2022-10-06T00:19:25.374Z,18.38
2022-10-06T00:20:27.711Z,14.65
2022-10-06T00:21:31.377Z,14.95
2022-10-06T00:22:34.907Z,18.77
2022-10-06T00:23:37.990Z,16.88
2022-10-06T00:24:41.853Z,15.50
2022-10-06T00:25:43.531Z,18.92
2022-10-06T00:26:47.258Z,16.20
2022-10-06T00:27:51.283Z,15.73
2022-10-06T00:28:53.420Z,18.15
2022-10-06T00:29:55.132Z,15.40
2022-10-06T00:30:57.402Z,16.25
2022-10-06T00:31:59.256Z,14.13
2022-10-06T00:33:03.966Z,23.55
2022-10-06T00:34:05.641Z,18.70
2022-10-06T00:35:08.321Z,33.65
2022-10-06T00:36:10.302Z,14.38
2022-10-06T00:37:11.954Z,15.63
2022-10-06T00:38:16.770Z,14.02
2022-10-06T00:39:19.946Z,19.92
2022-10-06T00:40:23.032Z,14.10
2022-10-06T00:41:25.119Z,15.95
2022-10-06T00:42:29.400Z,16.65
2022-10-06T00:43:40.264Z,17.98
2022-10-06T00:44:41.885Z,17.67
2022-10-06T00:45:48.891Z,17.40
2022-10-06T00:46:53.708Z,16.40
2022-10-06T00:47:59.823Z,16.20
2022-10-06T00:49:22.957Z,17.48
2022-10-06T00:50:24.795Z,16.85
2022-10-06T00:51:29.272Z,19.85
2022-10-06T00:52:31.731Z,16.27
2022-10-06T00:53:33.720Z,22.38
2022-10-06T00:54:36.345Z,23.70
2022-10-06T00:55:38.270Z,24.42
2022-10-06T00:56:41.125Z,14.52
2022-10-06T00:57:43.512Z,17.85
2022-10-06T00:58:45.571Z,14.85
2022-10-06T00:59:47.416Z,15.32
2022-10-06T01:00:54.997Z,19.13
2022-10-06T01:02:14.318Z,14.50
2022-10-06T01:03:21.338Z,15.95
2022-10-06T01:04:24.218Z,24.20
2022-10-06T01:05:30.117Z,13.20
2022-10-06T01:06:46.325Z,15.38
2022-10-06T01:07:48.799Z,15.82
2022-10-06T01:08:50.674Z,15.35
2022-10-06T01:09:52.852Z,19.63
2022-10-06T01:10:54.481Z,17.30
2022-10-06T01:11:59.813Z,18.27
2022-10-06T01:13:02.097Z,14.25
2022-10-06T01:14:03.890Z,16.30
2022-10-06T01:15:06.353Z,19.55
2022-10-06T01:16:20.806Z,16.00
2022-10-06T01:17:32.888Z,18.35
2022-10-06T01:18:37.381Z,15.10
2022-10-06T01:19:56.703Z,16.35
2022-10-06T01:21:12.603Z,16.73
2022-10-06T01:22:17.323Z,14.20
2022-10-06T01:23:19.498Z,14.40
2022-10-06T01:24:21.194Z,14.45
2022-10-06T01:25:23.134Z,16.10
2022-10-06T01:26:27.084Z,16.70
2022-10-06T01:27:31.831Z,16.10
2022-10-06T01:28:34.094Z,15.45
2022-10-06T01:29:37.008Z,15.48
2022-10-06T01:30:52.885Z,17.10
2022-10-06T01:31:55.406Z,14.63
2022-10-06T01:32:57.835Z,17.27
2022-10-06T01:33:59.616Z,20.27
2022-10-06T01:35:01.362Z,29.05
2022-10-06T01:36:03.987Z,23.13
2022-10-06T01:37:05.769Z,19.83
2022-10-06T01:38:07.517Z,17.45
2022-10-06T01:39:09.188Z,21.70
2022-10-06T01:40:11.015Z,16.30
2022-10-06T01:41:12.901Z,16.73
2022-10-06T01:42:16.041Z,18.23
2022-10-06T01:43:17.850Z,16.38
2022-10-06T01:44:20.005Z,24.83
2022-10-06T01:45:22.087Z,16.90
2022-10-06T01:46:25.112Z,20.48
2022-10-06T01:47:27.129Z,20.15
2022-10-06T01:48:29.083Z,18.23
2022-10-06T01:49:31.133Z,19.05
2022-10-06T01:50:32.908Z,19.63
2022-10-06T01:51:34.538Z,18.85
2022-10-06T01:52:36.756Z,18.60
2022-10-06T01:53:38.392Z,18.38
2022-10-06T01:54:40.411Z,19.70
2022-10-06T01:55:42.396Z,20.67
2022-10-06T01:56:44.266Z,17.35
2022-10-06T01:57:45.995Z,16.25
2022-10-06T01:58:48.501Z,18.65
2022-10-06T01:59:54.549Z,15.27
2022-10-06T02:00:56.567Z,20.08
2022-10-06T02:01:58.432Z,16.73
2022-10-06T02:03:00.211Z,17.10
2022-10-06T02:04:01.984Z,19.63
2022-10-06T02:07:20.355Z,14.40
2022-10-06T02:08:22.183Z,17.65
2022-10-06T02:09:24.014Z,19.40
2022-10-06T02:10:25.828Z,23.10
2022-10-06T02:11:29.133Z,14.88
2022-10-06T02:12:31.805Z,13.95
2022-10-06T02:13:33.571Z,20.80
2022-10-06T02:14:35.226Z,15.70
2022-10-06T02:15:37.096Z,22.13
2022-10-06T02:16:39.293Z,17.75
2022-10-06T02:17:40.979Z,20.15
2022-10-06T02:18:44.047Z,19.13
2022-10-06T02:19:45.743Z,16.63
2022-10-06T02:20:47.747Z,21.80
2022-10-06T02:21:49.550Z,21.35
2022-10-06T02:22:51.124Z,18.15
2022-10-06T02:23:52.801Z,22.10
2022-10-06T02:24:54.892Z,18.40
2022-10-06T02:26:01.212Z,18.55
2022-10-06T02:27:02.936Z,25.52
2022-10-06T02:28:04.697Z,18.70
2022-10-06T02:29:06.420Z,18.75
2022-10-06T02:30:08.929Z,17.40
2022-10-06T02:31:11.128Z,20.48
2022-10-06T02:32:12.837Z,14.90
2022-10-06T02:33:14.510Z,17.33
2022-10-06T02:34:16.217Z,17.67
2022-10-06T02:35:18.210Z,21.08
2022-10-06T02:36:20.543Z,16.77
2022-10-06T02:37:22.138Z,18.88
2022-10-06T02:38:23.969Z,17.50
2022-10-06T02:39:28.607Z,18.75
2022-10-06T02:40:32.340Z,19.90
2022-10-06T02:41:34.030Z,21.45
2022-10-06T02:42:37.492Z,20.67
2022-10-06T02:43:39.162Z,24.15
2022-10-06T02:44:40.783Z,21.13
2022-10-06T02:45:43.458Z,16.15
2022-10-06T02:46:45.411Z,19.85
2022-10-06T02:47:47.094Z,19.40
2022-10-06T02:48:48.845Z,24.33
2022-10-06T02:49:51.007Z,18.63
2022-10-06T02:50:56.868Z,14.65
2022-10-06T02:51:58.585Z,16.65
2022-10-06T02:53:00.247Z,18.00
2022-10-06T02:54:01.842Z,28.35
2022-10-06T02:55:14.103Z,17.65
2022-10-06T02:56:22.203Z,18.23
2022-10-06T02:57:23.910Z,15.80
2022-10-06T02:58:26.311Z,24.85
2022-10-06T02:59:28.676Z,21.50
2022-10-06T03:00:30.383Z,26.52
2022-10-06T03:01:32.192Z,23.25
2022-10-06T03:02:34.497Z,19.63
2022-10-06T03:03:37.496Z,20.35
2022-10-06T03:04:39.515Z,18.20
2022-10-06T03:05:41.332Z,26.60
2022-10-06T03:06:43.944Z,20.13
2022-10-06T03:07:46.104Z,20.50
2022-10-06T03:08:50.762Z,22.40
2022-10-06T03:09:52.579Z,22.52
2022-10-06T03:11:01.228Z,24.48
2022-10-06T03:12:03.264Z,24.70
2022-10-06T03:13:06.231Z,22.60
2022-10-06T03:14:08.821Z,18.38
2022-10-06T03:15:10.878Z,19.50
2022-10-06T03:16:26.315Z,25.58
2022-10-06T03:17:28.340Z,22.17
2022-10-06T03:18:31.815Z,21.02
2022-10-06T03:19:33.753Z,23.30
2022-10-06T03:20:35.584Z,27.33
2022-10-06T03:21:42.848Z,18.00
2022-10-06T03:22:44.567Z,24.20
2022-10-06T03:23:48.092Z,23.35
2022-10-06T03:24:50.096Z,21.13
2022-10-06T03:25:58.090Z,29.88
2022-10-06T03:27:01.674Z,16.48
2022-10-06T03:28:03.419Z,20.50
2022-10-06T03:29:11.094Z,24.30
2022-10-06T03:30:13.672Z,27.40
2022-10-06T03:31:16.431Z,21.42
2022-10-06T03:32:20.347Z,18.17
2022-10-06T03:33:22.409Z,22.23
2022-10-06T03:34:24.271Z,18.85
2022-10-06T03:35:26.323Z,18.40
2022-10-06T03:36:31.168Z,32.35
2022-10-06T03:37:32.872Z,20.20
2022-10-06T03:38:35.918Z,19.95
2022-10-06T03:39:37.614Z,22.38
2022-10-06T03:40:39.290Z,18.83
2022-10-06T03:41:41.151Z,25.42
2022-10-06T03:42:42.823Z,20.65
2022-10-06T03:43:46.855Z,24.38
2022-10-06T03:44:48.631Z,22.40
2022-10-06T03:46:01.090Z,27.83
2022-10-06T03:47:03.108Z,18.05
2022-10-06T03:48:05.001Z,19.25
2022-10-06T03:49:06.945Z,16.48
2022-10-06T03:50:09.507Z,20.17
2022-10-06T03:51:21.101Z,21.25
2022-10-06T03:52:26.021Z,25.83
2022-10-06T03:53:29.939Z,19.55
2022-10-06T03:54:31.632Z,19.42
2022-10-06T03:55:33.328Z,19.65
2022-10-06T03:56:37.727Z,17.70
2022-10-06T03:57:39.364Z,23.63
2022-10-06T03:58:44.108Z,19.95
2022-10-06T03:59:46.114Z,17.17
2022-10-06T04:00:47.795Z,23.65
2022-10-06T04:01:49.612Z,21.40
2022-10-06T04:02:51.317Z,17.35
2022-10-06T04:03:55.452Z,30.85
2022-10-06T04:04:57.140Z,26.00
2022-10-06T04:06:02.822Z,17.73
2022-10-06T04:07:04.468Z,16.80
2022-10-06T04:08:06.408Z,23.00
2022-10-06T04:09:14.985Z,21.67
2022-10-06T04:10:17.310Z,17.58
2022-10-06T04:11:24.482Z,19.35
2022-10-06T04:12:26.358Z,22.85
2022-10-06T04:13:28.182Z,17.90
2022-10-06T04:14:30.212Z,22.15
2022-10-06T04:15:31.956Z,29.58
2022-10-06T04:16:36.210Z,19.25
2022-10-06T04:17:38.351Z,20.10
2022-10-06T04:18:41.782Z,22.35
2022-10-06T04:19:43.565Z,25.02
2022-10-06T04:20:45.453Z,20.10
2022-10-06T04:21:47.938Z,24.23
2022-10-06T04:22:49.754Z,23.75
2022-10-06T04:23:58.892Z,27.55
2022-10-06T04:25:00.573Z,19.90
2022-10-06T04:26:10.030Z,19.25
2022-10-06T04:27:30.226Z,33.50
2022-10-06T04:28:33.004Z,24.88
2022-10-06T04:29:35.092Z,21.80
2022-10-06T04:30:39.908Z,22.40
2022-10-06T04:31:42.778Z,28.45
2022-10-06T04:32:45.741Z,17.60
2022-10-06T04:33:50.307Z,21.80
2022-10-06T04:34:51.959Z,19.98
2022-10-06T04:36:01.593Z,17.92
2022-10-06T04:37:04.044Z,23.08
2022-10-06T04:38:05.760Z,25.52
2022-10-06T04:39:10.288Z,21.33
2022-10-06T04:40:12.535Z,27.15
2022-10-06T04:41:16.719Z,25.40
2022-10-06T04:42:18.492Z,24.88
2022-10-06T04:43:20.334Z,24.38
2022-10-06T04:44:22.098Z,25.88
2022-10-06T04:45:23.952Z,23.05
2022-10-06T04:46:43.597Z,21.15
2022-10-06T04:47:49.012Z,21.15
2022-10-06T04:48:54.606Z,20.95
2022-10-06T04:49:56.377Z,21.15
2022-10-06T04:51:00.960Z,21.08
2022-10-06T04:52:02.728Z,25.73
2022-10-06T04:53:04.355Z,19.80
2022-10-06T04:54:06.058Z,18.20
2022-10-06T04:55:08.183Z,23.67
2022-10-06T04:56:18.977Z,20.55
2022-10-06T04:57:20.683Z,34.38
2022-10-06T04:58:23.629Z,25.10
2022-10-06T04:59:45.469Z,23.42
2022-10-06T05:00:49.183Z,25.45
2022-10-06T05:01:51.069Z,23.58
2022-10-06T05:02:56.083Z,29.10
2022-10-06T05:04:00.316Z,19.65
2022-10-06T05:05:02.119Z,29.67
2022-10-06T05:06:13.073Z,21.63
2022-10-06T05:07:14.756Z,20.77
2022-10-06T05:08:16.519Z,22.60
2022-10-06T05:09:18.170Z,25.10
2022-10-06T05:10:19.805Z,22.27
2022-10-06T05:11:25.889Z,22.48
2022-10-06T05:12:30.225Z,23.63
2022-10-06T05:13:32.315Z,19.55
2022-10-06T05:14:33.999Z,19.15
2022-10-06T05:15:35.643Z,26.38
2022-10-06T05:16:38.246Z,22.30
2022-10-06T05:17:40.178Z,23.15
2022-10-06T05:18:42.671Z,21.17
2022-10-06T05:19:44.321Z,21.92
2022-10-06T05:20:55.601Z,22.13
2022-10-06T05:21:57.258Z,26.45
2022-10-06T05:22:58.894Z,22.50
2022-10-06T05:24:00.785Z,18.02
2022-10-06T05:25:02.642Z,22.75
2022-10-06T05:26:04.981Z,22.05
2022-10-06T05:27:06.702Z,16.67
2022-10-06T05:28:08.444Z,24.40
2022-10-06T05:29:10.254Z,30.02
2022-10-06T05:30:12.166Z,19.58
2022-10-06T05:31:22.627Z,23.13
2022-10-06T05:32:24.497Z,21.60
2022-10-06T05:33:28.620Z,19.60
2022-10-06T05:34:30.341Z,17.75
2022-10-06T05:35:32.944Z,21.27
2022-10-06T05:36:35.222Z,19.23
2022-10-06T05:37:37.221Z,21.13
2022-10-06T05:38:39.535Z,18.77
2022-10-06T05:39:41.184Z,19.67
2022-10-06T05:40:42.852Z,23.98
2022-10-06T05:41:44.621Z,18.55
2022-10-06T05:42:46.291Z,18.20
2022-10-06T05:43:48.289Z,22.23
2022-10-06T05:44:50.040Z,24.48
2022-10-06T05:45:56.149Z,24.05
2022-10-06T05:46:57.912Z,30.45
2022-10-06T05:47:59.742Z,22.45
2022-10-06T05:49:04.175Z,24.33
2022-10-06T05:50:06.496Z,18.75
2022-10-06T05:51:09.946Z,24.40
2022-10-06T05:52:11.637Z,17.17
2022-10-06T05:53:13.577Z,17.70
2022-10-06T05:54:15.414Z,20.00
2022-10-06T05:55:17.053Z,24.10
2022-10-06T05:56:24.617Z,19.90
2022-10-06T05:57:27.679Z,17.63
2022-10-06T05:58:29.829Z,24.58
2022-10-06T05:59:31.874Z,22.55
2022-10-06T06:00:33.554Z,21.67
2022-10-06T06:01:39.810Z,22.35
2022-10-06T06:02:41.743Z,21.58
2022-10-06T06:03:47.720Z,23.00
2022-10-06T06:04:49.391Z,18.65
2022-10-06T06:05:51.185Z,22.58
2022-10-06T06:06:53.010Z,23.33
2022-10-06T06:07:54.736Z,23.40
2022-10-06T06:08:59.608Z,21.88
2022-10-06T06:10:01.424Z,21.60
2022-10-06T06:11:09.418Z,26.65
2022-10-06T06:12:11.104Z,21.50
2022-10-06T06:13:12.767Z,21.73
2022-10-06T06:14:19.935Z,27.60
2022-10-06T06:15:40.390Z,22.98
2022-10-06T06:16:43.242Z,23.33
2022-10-06T06:17:44.952Z,19.92
2022-10-06T06:18:46.588Z,19.60
2022-10-06T06:19:48.278Z,23.05
2022-10-06T06:21:01.292Z,19.67
2022-10-06T06:22:03.155Z,26.95
2022-10-06T06:23:04.865Z,23.35
2022-10-06T06:24:07.182Z,28.80
2022-10-06T06:25:09.425Z,26.63
2022-10-06T06:26:13.696Z,25.30
2022-10-06T06:27:15.437Z,28.75
2022-10-06T06:28:17.175Z,32.03
2022-10-06T06:29:18.858Z,19.75
2022-10-06T06:30:23.680Z,18.25
2022-10-06T06:31:27.317Z,19.90
2022-10-06T06:32:29.105Z,21.60
2022-10-06T06:33:31.328Z,22.17
2022-10-06T06:34:33.182Z,33.83
2022-10-06T06:35:36.840Z,21.15
2022-10-06T06:36:41.286Z,24.50
2022-10-06T06:37:42.964Z,25.35
2022-10-06T06:38:52.013Z,17.63
2022-10-06T06:39:53.655Z,22.15
2022-10-06T06:40:55.528Z,20.45
2022-10-06T06:41:57.265Z,23.10
2022-10-06T06:42:58.912Z,22.70
2022-10-06T06:44:00.604Z,19.77
2022-10-06T06:45:02.232Z,24.88
2022-10-06T06:46:04.832Z,23.42
2022-10-06T06:47:06.596Z,18.88
2022-10-06T06:48:15.518Z,28.15
2022-10-06T06:49:18.192Z,19.65
2022-10-06T06:50:19.970Z,22.58
2022-10-06T06:51:23.953Z,25.67
2022-10-06T06:52:26.175Z,25.45
2022-10-06T06:53:27.825Z,25.77
2022-10-06T06:54:29.465Z,21.75
2022-10-06T06:55:31.130Z,26.30
2022-10-06T06:56:38.688Z,23.95
2022-10-06T06:57:42.470Z,23.80
2022-10-06T06:58:49.006Z,23.05
2022-10-06T06:59:50.701Z,23.65
2022-10-06T07:00:52.632Z,21.73
2022-10-06T07:01:54.460Z,18.58
2022-10-06T07:03:00.723Z,20.25
2022-10-06T07:04:02.528Z,22.67
2022-10-06T07:05:05.975Z,25.95
2022-10-06T07:06:10.944Z,24.52
2022-10-06T07:07:12.787Z,24.05
2022-10-06T07:08:16.073Z,47.60
2022-10-06T07:09:17.744Z,25.92
2022-10-06T07:10:19.370Z,18.30
2022-10-06T07:11:30.073Z,24.52
2022-10-06T07:12:31.746Z,16.80
2022-10-06T07:13:33.491Z,17.80
2022-10-06T07:14:35.139Z,20.27
2022-10-06T07:16:16.046Z,17.63
2022-10-06T07:17:36.876Z,17.65
2022-10-06T07:18:57.002Z,19.50
2022-10-06T07:20:17.160Z,20.45
2022-10-06T07:21:38.501Z,18.60
2022-10-06T07:22:59.299Z,20.85
2022-10-06T07:24:19.961Z,18.35
2022-10-06T07:25:27.036Z,20.83
2022-10-06T07:26:31.072Z,19.40
2022-10-06T07:27:35.603Z,19.10
2022-10-06T07:28:37.367Z,26.38
2022-10-06T07:29:39.653Z,24.52
2022-10-06T07:30:41.387Z,21.48
2022-10-06T07:31:44.071Z,20.73
2022-10-06T07:32:47.365Z,20.80
2022-10-06T07:33:48.998Z,22.13
2022-10-06T07:34:53.089Z,25.48
2022-10-06T07:35:55.087Z,21.75
2022-10-06T07:37:04.084Z,23.23
2022-10-06T07:38:08.664Z,25.70
2022-10-06T07:39:10.516Z,28.98
2022-10-06T07:40:13.062Z,21.05
2022-10-06T07:41:19.340Z,18.58
2022-10-06T07:42:21.948Z,24.10
2022-10-06T07:43:24.127Z,28.05
2022-10-06T07:44:25.993Z,22.08
2022-10-06T07:45:41.999Z,22.67
2022-10-06T07:46:43.842Z,24.73
2022-10-06T07:47:45.595Z,23.42
2022-10-06T07:48:50.630Z,20.15
2022-10-06T07:49:52.260Z,21.35
2022-10-06T07:50:54.300Z,26.33
2022-10-06T07:51:56.851Z,20.08
2022-10-06T07:53:08.709Z,30.25
2022-10-06T07:54:11.100Z,21.77
2022-10-06T07:55:18.259Z,22.00
2022-10-06T07:56:20.734Z,23.17
2022-10-06T07:57:22.453Z,23.48
2022-10-06T07:58:24.270Z,21.48
2022-10-06T07:59:26.247Z,19.38
2022-10-06T08:00:28.116Z,20.15
2022-10-06T08:01:30.780Z,18.25
2022-10-06T08:02:35.568Z,23.58
2022-10-06T08:03:39.266Z,25.52
2022-10-06T08:04:40.959Z,26.75
2022-10-06T08:05:42.798Z,24.13
2022-10-06T08:06:44.919Z,22.92
2022-10-06T08:07:47.066Z,24.98
2022-10-06T08:08:52.595Z,19.73
2022-10-06T08:09:54.832Z,22.70
2022-10-06T08:11:01.619Z,15.90
2022-10-06T08:12:23.789Z,20.30
2022-10-06T08:13:26.505Z,16.50
2022-10-06T08:14:28.199Z,17.40
2022-10-06T08:15:29.846Z,22.58
2022-10-06T08:16:31.586Z,16.42
2022-10-06T08:17:35.212Z,14.82
2022-10-06T08:18:47.454Z,19.15
2022-10-06T08:19:49.128Z,17.48
2022-10-06T08:20:51.141Z,22.20
2022-10-06T08:21:52.935Z,23.65
2022-10-06T08:22:55.173Z,19.80
2022-10-06T08:23:58.691Z,16.95
2022-10-06T08:25:08.428Z,17.50
2022-10-06T08:26:11.895Z,18.75
2022-10-06T08:27:13.706Z,20.00
2022-10-06T08:28:15.449Z,17.77
2022-10-06T08:29:17.150Z,15.00
2022-10-06T08:30:19.156Z,18.90
2022-10-06T08:31:22.701Z,17.23
2022-10-06T08:32:24.827Z,16.35
2022-10-06T08:33:27.826Z,16.40
2022-10-06T08:34:30.014Z,16.42
2022-10-06T08:35:33.352Z,20.48
2022-10-06T08:36:35.063Z,20.27
2022-10-06T08:37:36.873Z,14.50
2022-10-06T08:38:39.045Z,16.42
2022-10-06T08:39:42.839Z,15.05
2022-10-06T08:40:45.374Z,27.85
2022-10-06T08:41:52.239Z,14.52
2022-10-06T08:42:58.163Z,13.70
2022-10-06T08:44:01.970Z,14.77
2022-10-06T08:45:14.970Z,15.13
2022-10-06T08:46:21.042Z,14.25
2022-10-06T08:47:29.099Z,18.67
2022-10-06T08:48:38.629Z,16.27
2022-10-06T08:49:44.530Z,15.15
2022-10-06T08:50:58.334Z,15.25
2022-10-06T08:52:18.465Z,16.85
2022-10-06T08:53:26.263Z,14.48
2022-10-06T08:54:46.922Z,12.90
2022-10-06T08:56:09.055Z,16.98
2022-10-06T08:57:26.799Z,13.10
2022-10-06T08:58:32.493Z,14.93
2022-10-06T08:59:36.552Z,12.10
2022-10-06T09:00:38.486Z,12.10
2022-10-06T09:01:49.248Z,12.10
2022-10-06T09:02:51.460Z,12.15
2022-10-06T09:03:57.349Z,19.75
2022-10-06T09:05:02.889Z,12.85
2022-10-06T09:06:15.325Z,13.68
2022-10-06T09:07:38.913Z,12.80
2022-10-06T09:08:55.402Z,14.27
2022-10-06T09:10:00.759Z,13.15
2022-10-06T09:11:25.201Z,13.63
2022-10-06T09:12:36.355Z,12.00
2022-10-06T09:13:49.292Z,13.73
2022-10-06T09:15:19.242Z,11.80
2022-10-06T09:16:32.136Z,12.65
2022-10-06T09:17:41.634Z,12.32
2022-10-06T09:19:14.709Z,14.40
2022-10-06T09:20:55.232Z,11.55
2022-10-06T09:21:57.262Z,12.20
2022-10-06T09:23:00.956Z,12.05
2022-10-06T09:24:10.426Z,11.93
2022-10-06T09:25:16.250Z,13.30
2022-10-06T09:26:23.559Z,12.90
2022-10-06T09:27:36.716Z,13.75
2022-10-06T09:28:38.661Z,14.95
2022-10-06T09:29:40.367Z,12.32
2022-10-06T09:30:43.357Z,18.02
2022-10-06T09:31:51.252Z,13.65
2022-10-06T09:33:00.190Z,11.85
2022-10-06T09:34:16.596Z,12.75
2022-10-06T09:35:21.398Z,11.93
2022-10-06T09:36:24.156Z,12.00
2022-10-06T09:37:27.071Z,14.10
2022-10-06T09:38:47.712Z,13.70
2022-10-06T09:39:51.614Z,12.40
2022-10-06T09:40:55.433Z,14.40
2022-10-06T09:41:57.133Z,12.30
2022-10-06T09:42:59.688Z,12.55
2022-10-06T09:44:26.385Z,12.32
2022-10-06T09:45:29.091Z,12.85
2022-10-06T09:46:34.567Z,12.30
2022-10-06T09:47:46.967Z,13.32
2022-10-06T09:49:05.336Z,15.82
2022-10-06T09:50:16.146Z,11.70
2022-10-06T09:51:18.522Z,13.45
2022-10-06T09:52:20.246Z,12.77
2022-10-06T09:53:23.169Z,11.80
2022-10-06T09:54:25.267Z,13.45
2022-10-06T09:55:34.542Z,12.73
2022-10-06T09:56:41.218Z,11.77
2022-10-06T09:57:53.539Z,16.70
2022-10-06T09:58:57.579Z,12.75
2022-10-06T09:59:59.713Z,12.50
2022-10-06T10:01:06.814Z,12.13
2022-10-06T10:02:40.873Z,13.00
2022-10-06T10:03:51.412Z,15.13
2022-10-06T10:05:20.034Z,11.60
2022-10-06T10:06:35.100Z,13.95
2022-10-06T10:07:37.370Z,14.05
2022-10-06T10:08:39.008Z,11.90
2022-10-06T10:09:43.800Z,12.60
2022-10-06T10:10:45.434Z,14.05
2022-10-06T10:12:27.748Z,13.35
2022-10-06T10:13:44.621Z,12.15
2022-10-06T10:14:46.476Z,13.07
2022-10-06T10:16:02.010Z,13.27
2022-10-06T10:17:17.247Z,11.50
2022-10-06T10:18:26.344Z,12.52
2022-10-06T10:19:37.731Z,12.50
2022-10-06T10:20:50.484Z,16.45
2022-10-06T10:21:53.587Z,15.75
2022-10-06T10:23:01.425Z,13.32
2022-10-06T10:24:13.793Z,13.77
2022-10-06T10:25:25.541Z,27.17
2022-10-06T10:26:58.159Z,14.07
2022-10-06T10:28:17.129Z,12.20
2022-10-06T10:29:21.823Z,13.55
2022-10-06T10:30:23.716Z,13.50
2022-10-06T10:31:44.357Z,12.57
2022-10-06T10:32:52.920Z,13.13
2022-10-06T10:34:23.575Z,13.50
2022-10-06T10:35:33.840Z,16.05
2022-10-06T10:36:58.744Z,14.90
2022-10-06T10:38:11.110Z,12.75
2022-10-06T10:39:22.488Z,11.80
2022-10-06T10:40:44.766Z,12.20
2022-10-06T10:41:55.081Z,11.50
2022-10-06T10:43:08.164Z,17.02
2022-10-06T10:44:15.017Z,13.10
2022-10-06T10:45:29.078Z,13.02
2022-10-06T10:46:44.768Z,14.10
2022-10-06T10:47:49.162Z,14.30
2022-10-06T10:48:58.784Z,12.93
2022-10-06T10:50:24.529Z,12.85
2022-10-06T10:51:31.428Z,14.23
2022-10-06T10:52:41.098Z,11.38
2022-10-06T10:53:53.238Z,13.65
2022-10-06T10:55:16.086Z,12.38
2022-10-06T10:56:21.080Z,11.52
2022-10-06T10:57:30.290Z,12.88
2022-10-06T10:58:43.110Z,12.95
2022-10-06T10:59:50.511Z,13.70
2022-10-06T11:00:58.164Z,12.73
2022-10-06T11:02:02.938Z,11.50
2022-10-06T11:03:05.395Z,11.73
2022-10-06T11:04:12.721Z,11.48
2022-10-06T11:05:17.188Z,14.73
2022-10-06T11:06:33.905Z,12.15
2022-10-06T11:07:43.034Z,11.73
2022-10-06T11:09:18.998Z,12.55
2022-10-06T11:10:28.298Z,11.48
2022-10-06T11:11:39.245Z,11.82
2022-10-06T11:13:09.248Z,11.70
2022-10-06T11:14:36.941Z,13.10
2022-10-06T11:15:47.257Z,17.30
2022-10-06T11:17:33.460Z,12.30
2022-10-06T11:19:09.817Z,14.90
2022-10-06T11:20:30.483Z,11.68
2022-10-06T11:21:41.234Z,12.55
2022-10-06T11:22:56.027Z,12.35
2022-10-06T11:24:15.500Z,12.95
2022-10-06T11:25:36.678Z,11.60
2022-10-06T11:27:02.226Z,12.32
2022-10-06T11:28:14.113Z,14.65
2022-10-06T11:29:34.797Z,15.00
2022-10-06T11:30:54.302Z,11.60
2022-10-06T11:32:28.432Z,12.60
2022-10-06T11:33:54.278Z,13.20
2022-10-06T11:34:56.377Z,11.75
2022-10-06T11:35:58.642Z,12.98
2022-10-06T11:37:18.805Z,14.05
2022-10-06T11:38:54.426Z,12.57
2022-10-06T11:40:31.138Z,12.00
2022-10-06T11:41:41.906Z,16.13
2022-10-06T11:43:07.836Z,12.90
2022-10-06T11:44:19.816Z,16.23
2022-10-06T11:45:45.309Z,13.32
2022-10-06T11:46:55.876Z,12.30
2022-10-06T11:48:34.743Z,14.30
2022-10-06T11:49:47.976Z,17.00
2022-10-06T11:50:53.071Z,12.32
2022-10-06T11:51:59.301Z,11.80
2022-10-06T11:53:04.831Z,11.55
2022-10-06T11:54:44.853Z,15.85
2022-10-06T11:55:46.728Z,16.02
2022-10-06T11:56:48.420Z,17.13
2022-10-06T11:58:41.237Z,15.35
2022-10-06T11:59:39.102Z,11.65
2022-10-06T12:00:46.128Z,11.80
2022-10-06T12:01:47.905Z,11.82
2022-10-06T12:02:49.968Z,11.60
2022-10-06T12:04:08.948Z,11.45
2022-10-06T12:05:35.670Z,12.07
2022-10-06T12:06:53.244Z,18.38
2022-10-06T12:07:57.895Z,12.40
2022-10-06T12:08:59.702Z,12.52
2022-10-06T12:10:29.056Z,13.68
2022-10-06T12:11:42.466Z,11.60
2022-10-06T12:13:02.070Z,12.00
2022-10-06T12:18:14.536Z,12.20
2022-10-06T12:19:41.580Z,12.20
2022-10-06T12:20:53.896Z,12.15
2022-10-06T12:22:01.023Z,11.98
2022-10-06T12:23:08.587Z,12.32
2022-10-06T12:24:27.416Z,12.10
2022-10-06T12:25:35.132Z,11.65
2022-10-06T12:26:58.002Z,12.88
2022-10-06T12:28:36.914Z,12.80
2022-10-06T12:29:55.913Z,14.18
2022-10-06T12:31:38.453Z,12.55
2022-10-06T12:32:42.888Z,11.60
2022-10-06T12:33:46.056Z,12.40
2022-10-06T12:35:16.535Z,12.10
2022-10-06T12:36:32.348Z,11.90
2022-10-06T12:37:54.970Z,13.52
2022-10-06T12:39:20.197Z,12.27
2022-10-06T12:40:49.221Z,12.20
2022-10-06T12:41:53.993Z,13.68
2022-10-06T12:43:19.637Z,12.30
2022-10-06T12:44:38.610Z,15.25
2022-10-06T12:46:07.435Z,11.80
2022-10-06T12:47:37.923Z,18.30
2022-10-06T12:49:01.519Z,13.70
2022-10-06T12:50:36.623Z,12.63
2022-10-06T12:51:43.299Z,13.20
2022-10-06T12:53:00.972Z,12.60
2022-10-06T12:54:05.755Z,12.75
2022-10-06T12:55:46.223Z,12.65
2022-10-06T12:57:17.071Z,11.57
2022-10-06T12:58:26.055Z,12.48
2022-10-06T12:59:34.819Z,11.70
2022-10-06T13:00:39.906Z,12.85
2022-10-06T13:01:41.908Z,12.45
2022-10-06T13:02:44.488Z,15.20
2022-10-06T13:03:50.961Z,11.95
2022-10-06T13:05:10.527Z,13.90
2022-10-06T13:06:12.552Z,13.30
2022-10-06T13:07:21.072Z,11.93
2022-10-06T13:08:28.397Z,12.38
2022-10-06T13:09:30.044Z,11.60
2022-10-06T13:10:32.878Z,11.95
2022-10-06T13:11:35.384Z,13.77
2022-10-06T13:12:38.407Z,11.90
2022-10-06T13:13:48.699Z,12.43
2022-10-06T13:15:34.504Z,17.05
2022-10-06T13:16:41.011Z,12.50
2022-10-06T13:17:55.945Z,15.15
2022-10-06T13:19:00.473Z,12.77
2022-10-06T13:20:02.258Z,11.80
2022-10-06T13:21:12.021Z,11.80
2022-10-06T13:22:14.600Z,11.68
2022-10-06T13:23:29.394Z,12.82
2022-10-06T13:24:31.095Z,13.90
2022-10-06T13:25:52.360Z,11.82
2022-10-06T13:26:54.672Z,19.27
2022-10-06T13:27:56.475Z,13.48
2022-10-06T13:29:00.328Z,13.68
2022-10-06T13:30:22.497Z,14.38
2022-10-06T13:31:33.386Z,14.50
2022-10-06T13:32:35.101Z,12.40
2022-10-06T13:33:40.519Z,11.70
2022-10-06T13:34:43.686Z,14.88
2022-10-06T13:35:49.093Z,12.80
2022-10-06T13:36:52.116Z,18.05
2022-10-06T13:37:55.159Z,12.27
2022-10-06T13:38:57.096Z,12.85
2022-10-06T13:39:59.175Z,16.23
2022-10-06T13:41:31.249Z,16.67
2022-10-06T13:42:33.435Z,14.57
2022-10-06T13:43:41.860Z,15.45
2022-10-06T13:44:50.098Z,12.40
2022-10-06T13:45:53.987Z,11.98
2022-10-06T13:47:02.287Z,15.98
2022-10-06T13:48:17.098Z,14.65
2022-10-06T13:49:31.172Z,12.50
2022-10-06T13:50:34.011Z,18.45
2022-10-06T13:51:35.783Z,15.13
2022-10-06T13:52:44.219Z,12.20
2022-10-06T13:53:47.928Z,12.02
2022-10-06T13:54:59.088Z,17.85
2022-10-06T13:56:01.221Z,15.77
2022-10-06T13:57:03.274Z,13.23
2022-10-06T13:58:08.382Z,12.00
2022-10-06T13:59:33.683Z,14.98
2022-10-06T14:00:56.219Z,12.38
2022-10-06T14:02:01.109Z,12.25
2022-10-06T14:03:05.661Z,14.95
2022-10-06T14:04:18.407Z,12.93
2022-10-06T14:05:31.363Z,16.27
2022-10-06T14:06:33.048Z,16.50
2022-10-06T14:07:34.782Z,19.38
2022-10-06T14:08:37.037Z,12.30
2022-10-06T14:09:39.277Z,12.25
2022-10-06T14:10:49.699Z,18.38
2022-10-06T14:11:53.916Z,17.83
2022-10-06T14:12:55.919Z,15.52
2022-10-06T14:14:03.840Z,14.10
2022-10-06T14:15:18.401Z,15.73
2022-10-06T14:16:25.252Z,11.75
2022-10-06T14:17:28.945Z,14.63
2022-10-06T14:18:44.394Z,12.70
2022-10-06T14:19:46.262Z,12.48
2022-10-06T14:20:49.779Z,14.68
2022-10-06T14:21:51.761Z,13.18
2022-10-06T14:22:53.395Z,12.10
2022-10-06T14:23:55.868Z,11.90
2022-10-06T14:24:57.814Z,12.13
2022-10-06T14:26:00.095Z,15.98
2022-10-06T14:27:06.711Z,12.30
2022-10-06T14:28:08.617Z,12.15